sensor_id;sensor_type;location;lat;lon;timestamp;P1;durP1;ratioP1;P2;durP2;ratioP2
32407;SDS011;18869;55.970;37.502;2022-11-20T00:01:12;13.77;;;10.63;;
32407;SDS011;18869;55.970;37.502;2022-11-20T00:03:41;14.50;;;10.77;;
32407;SDS011;18869;55.970;37.502;2022-11-20T00:06:10;15.93;;;10.27;;
32407;SDS011;18869;55.970;37.502;2022-11-20T00:08:38;15.13;;;11.93;;
32407;SDS011;18869;55.970;37.502;2022-11-20T00:11:09;13.80;;;11.50;;
32407;SDS011;18869;55.970;37.502;2022-11-20T00:13:37;14.33;;;10.67;;
32407;SDS011;18869;55.970;37.502;2022-11-20T00:16:05;17.47;;;11.33;;
32407;SDS011;18869;55.970;37.502;2022-11-20T00:18:36;14.77;;;11.00;;
32407;SDS011;18869;55.970;37.502;2022-11-20T00:21:04;14.23;;;11.20;;
32407;SDS011;18869;55.970;37.502;2022-11-20T00:23:33;14.00;;;11.23;;
32407;SDS011;18869;55.970;37.502;2022-11-20T00:26:03;15.93;;;12.00;;
32407;SDS011;18869;55.970;37.502;2022-11-20T00:28:32;12.37;;;9.83;;
32407;SDS011;18869;55.970;37.502;2022-11-20T00:31:00;14.47;;;11.53;;
32407;SDS011;18869;55.970;37.502;2022-11-20T00:33:29;17.73;;;12.07;;
32407;SDS011;18869;55.970;37.502;2022-11-20T00:36:00;15.70;;;10.93;;
32407;SDS011;18869;55.970;37.502;2022-11-20T00:38:29;14.43;;;11.17;;
32407;SDS011;18869;55.970;37.502;2022-11-20T00:40:57;13.33;;;11.13;;
32407;SDS011;18869;55.970;37.502;2022-11-20T00:43:25;15.20;;;10.80;;
32407;SDS011;18869;55.970;37.502;2022-11-20T00:45:57;14.57;;;11.27;;
32407;SDS011;18869;55.970;37.502;2022-11-20T00:48:25;13.63;;;10.13;;
32407;SDS011;18869;55.970;37.502;2022-11-20T00:50:53;13.40;;;10.47;;
32407;SDS011;18869;55.970;37.502;2022-11-20T00:53:21;15.77;;;12.43;;
32407;SDS011;18869;55.970;37.502;2022-11-20T00:55:55;14.60;;;10.43;;
32407;SDS011;18869;55.970;37.502;2022-11-20T00:58:24;12.47;;;10.43;;
32407;SDS011;18869;55.970;37.502;2022-11-20T01:00:51;13.87;;;10.70;;
32407;SDS011;18869;55.970;37.502;2022-11-20T01:03:20;12.20;;;10.90;;
32407;SDS011;18869;55.970;37.502;2022-11-20T01:05:48;16.27;;;9.83;;
32407;SDS011;18869;55.970;37.502;2022-11-20T01:08:15;12.90;;;9.77;;
32407;SDS011;18869;55.970;37.502;2022-11-20T01:10:43;16.07;;;10.97;;
32407;SDS011;18869;55.970;37.502;2022-11-20T01:13:10;13.90;;;10.60;;
32407;SDS011;18869;55.970;37.502;2022-11-20T01:15:55;19.53;;;11.10;;
32407;SDS011;18869;55.970;37.502;2022-11-20T01:18:31;14.60;;;12.03;;
32407;SDS011;18869;55.970;37.502;2022-11-20T01:21:02;16.10;;;10.90;;
32407;SDS011;18869;55.970;37.502;2022-11-20T01:23:32;14.60;;;10.43;;
32407;SDS011;18869;55.970;37.502;2022-11-20T01:26:00;14.93;;;11.17;;
32407;SDS011;18869;55.970;37.502;2022-11-20T01:28:29;14.10;;;10.90;;
32407;SDS011;18869;55.970;37.502;2022-11-20T01:30:57;15.73;;;12.20;;
32407;SDS011;18869;55.970;37.502;2022-11-20T01:33:25;15.90;;;12.07;;
32407;SDS011;18869;55.970;37.502;2022-11-20T01:36:02;16.13;;;10.60;;
32407;SDS011;18869;55.970;37.502;2022-11-20T01:38:31;13.70;;;10.30;;
32407;SDS011;18869;55.970;37.502;2022-11-20T01:40:58;14.17;;;11.30;;
32407;SDS011;18869;55.970;37.502;2022-11-20T01:43:26;16.47;;;11.83;;
32407;SDS011;18869;55.970;37.502;2022-11-20T01:48:50;15.90;;;11.30;;
32407;SDS011;18869;55.970;37.502;2022-11-20T01:51:23;18.10;;;11.37;;
32407;SDS011;18869;55.970;37.502;2022-11-20T01:53:57;13.70;;;11.20;;
32407;SDS011;18869;55.970;37.502;2022-11-20T01:56:28;14.93;;;10.30;;
32407;SDS011;18869;55.970;37.502;2022-11-20T01:58:58;15.97;;;11.20;;
32407;SDS011;18869;55.970;37.502;2022-11-20T02:01:28;16.43;;;10.17;;
32407;SDS011;18869;55.970;37.502;2022-11-20T02:03:56;13.73;;;12.00;;
32407;SDS011;18869;55.970;37.502;2022-11-20T02:06:25;15.30;;;10.60;;
32407;SDS011;18869;55.970;37.502;2022-11-20T02:08:54;13.70;;;11.07;;
32407;SDS011;18869;55.970;37.502;2022-11-20T02:11:22;14.00;;;12.17;;
32407;SDS011;18869;55.970;37.502;2022-11-20T02:13:49;17.77;;;14.17;;
32407;SDS011;18869;55.970;37.502;2022-11-20T02:16:18;18.37;;;11.73;;
32407;SDS011;18869;55.970;37.502;2022-11-20T02:18:48;21.30;;;12.83;;
32407;SDS011;18869;55.970;37.502;2022-11-20T02:21:21;18.83;;;12.43;;
32407;SDS011;18869;55.970;37.502;2022-11-20T02:24:06;15.70;;;11.10;;
32407;SDS011;18869;55.970;37.502;2022-11-20T02:26:38;18.13;;;11.77;;
32407;SDS011;18869;55.970;37.502;2022-11-20T02:29:11;16.83;;;12.60;;
32407;SDS011;18869;55.970;37.502;2022-11-20T02:31:40;16.30;;;12.33;;
32407;SDS011;18869;55.970;37.502;2022-11-20T02:34:09;18.10;;;12.47;;
32407;SDS011;18869;55.970;37.502;2022-11-20T02:36:36;19.87;;;13.73;;
32407;SDS011;18869;55.970;37.502;2022-11-20T02:39:07;16.90;;;11.83;;
32407;SDS011;18869;55.970;37.502;2022-11-20T02:41:35;17.50;;;12.50;;
32407;SDS011;18869;55.970;37.502;2022-11-20T02:44:04;15.63;;;10.83;;
32407;SDS011;18869;55.970;37.502;2022-11-20T02:46:31;15.20;;;10.77;;
32407;SDS011;18869;55.970;37.502;2022-11-20T02:49:00;13.30;;;10.63;;
32407;SDS011;18869;55.970;37.502;2022-11-20T02:51:29;11.60;;;9.87;;
32407;SDS011;18869;55.970;37.502;2022-11-20T02:53:57;17.83;;;11.77;;
32407;SDS011;18869;55.970;37.502;2022-11-20T02:56:30;12.57;;;11.03;;
32407;SDS011;18869;55.970;37.502;2022-11-20T02:58:58;13.43;;;10.73;;
32407;SDS011;18869;55.970;37.502;2022-11-20T03:01:25;15.27;;;11.90;;
32407;SDS011;18869;55.970;37.502;2022-11-20T03:03:53;11.07;;;9.93;;
32407;SDS011;18869;55.970;37.502;2022-11-20T03:06:21;12.00;;;10.37;;
32407;SDS011;18869;55.970;37.502;2022-11-20T03:08:49;15.50;;;11.07;;
32407;SDS011;18869;55.970;37.502;2022-11-20T03:11:17;14.43;;;11.07;;
32407;SDS011;18869;55.970;37.502;2022-11-20T03:13:46;13.47;;;10.97;;
32407;SDS011;18869;55.970;37.502;2022-11-20T03:16:14;15.47;;;10.93;;
32407;SDS011;18869;55.970;37.502;2022-11-20T03:18:43;11.80;;;9.47;;
32407;SDS011;18869;55.970;37.502;2022-11-20T03:21:11;12.23;;;10.40;;
32407;SDS011;18869;55.970;37.502;2022-11-20T03:23:40;15.87;;;10.60;;
32407;SDS011;18869;55.970;37.502;2022-11-20T03:26:08;13.53;;;10.13;;
32407;SDS011;18869;55.970;37.502;2022-11-20T03:28:47;12.53;;;11.00;;
32407;SDS011;18869;55.970;37.502;2022-11-20T03:31:16;14.03;;;10.17;;
32407;SDS011;18869;55.970;37.502;2022-11-20T03:33:45;14.13;;;11.43;;
32407;SDS011;18869;55.970;37.502;2022-11-20T03:36:13;10.90;;;9.80;;
32407;SDS011;18869;55.970;37.502;2022-11-20T03:38:42;12.40;;;9.90;;
32407;SDS011;18869;55.970;37.502;2022-11-20T03:41:11;16.53;;;12.07;;
32407;SDS011;18869;55.970;37.502;2022-11-20T03:43:41;13.23;;;9.27;;
32407;SDS011;18869;55.970;37.502;2022-11-20T03:46:10;13.93;;;10.70;;
32407;SDS011;18869;55.970;37.502;2022-11-20T03:48:38;14.17;;;11.47;;
32407;SDS011;18869;55.970;37.502;2022-11-20T03:51:06;13.57;;;10.83;;
32407;SDS011;18869;55.970;37.502;2022-11-20T03:53:34;14.20;;;11.33;;
32407;SDS011;18869;55.970;37.502;2022-11-20T03:56:03;15.10;;;11.30;;
32407;SDS011;18869;55.970;37.502;2022-11-20T03:58:32;15.90;;;11.00;;
32407;SDS011;18869;55.970;37.502;2022-11-20T04:01:03;15.40;;;11.30;;
32407;SDS011;18869;55.970;37.502;2022-11-20T04:03:34;15.13;;;10.60;;
32407;SDS011;18869;55.970;37.502;2022-11-20T04:06:02;13.73;;;10.90;;
32407;SDS011;18869;55.970;37.502;2022-11-20T04:08:31;15.57;;;11.00;;
32407;SDS011;18869;55.970;37.502;2022-11-20T04:11:07;15.77;;;11.30;;
32407;SDS011;18869;55.970;37.502;2022-11-20T04:13:36;17.40;;;11.83;;
32407;SDS011;18869;55.970;37.502;2022-11-20T04:16:04;17.13;;;11.87;;
32407;SDS011;18869;55.970;37.502;2022-11-20T04:18:36;15.60;;;11.90;;
32407;SDS011;18869;55.970;37.502;2022-11-20T04:21:04;14.50;;;12.17;;
32407;SDS011;18869;55.970;37.502;2022-11-20T04:23:32;14.03;;;10.97;;
32407;SDS011;18869;55.970;37.502;2022-11-20T04:26:00;16.77;;;11.73;;
32407;SDS011;18869;55.970;37.502;2022-11-20T04:28:30;15.07;;;12.10;;
32407;SDS011;18869;55.970;37.502;2022-11-20T04:31:02;16.10;;;12.50;;
32407;SDS011;18869;55.970;37.502;2022-11-20T04:33:35;15.20;;;10.57;;
32407;SDS011;18869;55.970;37.502;2022-11-20T04:36:07;15.10;;;11.07;;
32407;SDS011;18869;55.970;37.502;2022-11-20T04:38:38;14.73;;;10.27;;
32407;SDS011;18869;55.970;37.502;2022-11-20T04:41:06;15.90;;;10.70;;
32407;SDS011;18869;55.970;37.502;2022-11-20T04:43:34;14.90;;;11.93;;
32407;SDS011;18869;55.970;37.502;2022-11-20T04:46:02;12.73;;;10.93;;
32407;SDS011;18869;55.970;37.502;2022-11-20T04:48:29;16.47;;;12.20;;
32407;SDS011;18869;55.970;37.502;2022-11-20T04:51:02;14.40;;;11.10;;
32407;SDS011;18869;55.970;37.502;2022-11-20T04:53:30;14.00;;;11.37;;
32407;SDS011;18869;55.970;37.502;2022-11-20T04:56:01;13.30;;;11.90;;
32407;SDS011;18869;55.970;37.502;2022-11-20T04:58:30;14.83;;;11.30;;
32407;SDS011;18869;55.970;37.502;2022-11-20T05:01:01;14.90;;;13.10;;
32407;SDS011;18869;55.970;37.502;2022-11-20T05:03:30;15.63;;;12.50;;
32407;SDS011;18869;55.970;37.502;2022-11-20T05:06:01;14.73;;;11.33;;
32407;SDS011;18869;55.970;37.502;2022-11-20T05:08:28;14.73;;;11.27;;
32407;SDS011;18869;55.970;37.502;2022-11-20T05:10:59;12.73;;;10.80;;
32407;SDS011;18869;55.970;37.502;2022-11-20T05:13:27;13.83;;;10.83;;
32407;SDS011;18869;55.970;37.502;2022-11-20T05:15:54;16.57;;;11.73;;
32407;SDS011;18869;55.970;37.502;2022-11-20T05:18:22;16.17;;;11.30;;
32407;SDS011;18869;55.970;37.502;2022-11-20T05:20:54;13.40;;;11.40;;
32407;SDS011;18869;55.970;37.502;2022-11-20T05:23:25;15.00;;;12.73;;
32407;SDS011;18869;55.970;37.502;2022-11-20T05:25:53;16.20;;;12.23;;
32407;SDS011;18869;55.970;37.502;2022-11-20T05:28:23;16.87;;;11.77;;
32407;SDS011;18869;55.970;37.502;2022-11-20T05:30:51;17.00;;;12.80;;
32407;SDS011;18869;55.970;37.502;2022-11-20T05:33:19;17.13;;;12.03;;
32407;SDS011;18869;55.970;37.502;2022-11-20T05:35:47;17.90;;;13.30;;
32407;SDS011;18869;55.970;37.502;2022-11-20T05:38:15;17.10;;;12.27;;
32407;SDS011;18869;55.970;37.502;2022-11-20T05:40:44;17.87;;;12.80;;
32407;SDS011;18869;55.970;37.502;2022-11-20T05:43:13;16.07;;;13.47;;
32407;SDS011;18869;55.970;37.502;2022-11-20T05:45:41;14.80;;;11.40;;
32407;SDS011;18869;55.970;37.502;2022-11-20T05:48:08;16.03;;;11.63;;
32407;SDS011;18869;55.970;37.502;2022-11-20T05:50:36;14.93;;;11.73;;
32407;SDS011;18869;55.970;37.502;2022-11-20T05:53:04;17.53;;;12.50;;
32407;SDS011;18869;55.970;37.502;2022-11-20T05:55:33;17.37;;;12.10;;
32407;SDS011;18869;55.970;37.502;2022-11-20T05:58:02;14.77;;;12.20;;
32407;SDS011;18869;55.970;37.502;2022-11-20T06:00:30;18.40;;;13.23;;
32407;SDS011;18869;55.970;37.502;2022-11-20T06:03:05;18.63;;;13.87;;
32407;SDS011;18869;55.970;37.502;2022-11-20T06:05:35;16.17;;;12.50;;
32407;SDS011;18869;55.970;37.502;2022-11-20T06:08:02;15.53;;;12.30;;
32407;SDS011;18869;55.970;37.502;2022-11-20T06:10:33;17.70;;;13.03;;
32407;SDS011;18869;55.970;37.502;2022-11-20T06:13:00;18.73;;;13.33;;
32407;SDS011;18869;55.970;37.502;2022-11-20T06:15:39;16.97;;;12.70;;
32407;SDS011;18869;55.970;37.502;2022-11-20T06:18:13;16.40;;;13.33;;
32407;SDS011;18869;55.970;37.502;2022-11-20T06:21:04;17.27;;;13.63;;
32407;SDS011;18869;55.970;37.502;2022-11-20T06:23:33;16.80;;;12.43;;
32407;SDS011;18869;55.970;37.502;2022-11-20T06:26:04;17.13;;;12.77;;
32407;SDS011;18869;55.970;37.502;2022-11-20T06:28:34;17.60;;;13.43;;
32407;SDS011;18869;55.970;37.502;2022-11-20T06:31:03;19.17;;;12.67;;
32407;SDS011;18869;55.970;37.502;2022-11-20T06:33:33;22.67;;;14.17;;
32407;SDS011;18869;55.970;37.502;2022-11-20T06:36:04;19.43;;;13.23;;
32407;SDS011;18869;55.970;37.502;2022-11-20T06:38:32;17.20;;;12.73;;
32407;SDS011;18869;55.970;37.502;2022-11-20T06:40:59;20.33;;;13.43;;
32407;SDS011;18869;55.970;37.502;2022-11-20T06:43:28;18.10;;;13.10;;
32407;SDS011;18869;55.970;37.502;2022-11-20T06:45:57;21.90;;;13.90;;
32407;SDS011;18869;55.970;37.502;2022-11-20T06:48:27;18.47;;;13.17;;
32407;SDS011;18869;55.970;37.502;2022-11-20T06:50:55;17.40;;;12.83;;
32407;SDS011;18869;55.970;37.502;2022-11-20T06:53:26;19.47;;;13.97;;
32407;SDS011;18869;55.970;37.502;2022-11-20T06:55:55;17.50;;;13.80;;
32407;SDS011;18869;55.970;37.502;2022-11-20T06:58:23;19.30;;;14.07;;
32407;SDS011;18869;55.970;37.502;2022-11-20T07:00:54;16.53;;;12.30;;
32407;SDS011;18869;55.970;37.502;2022-11-20T07:03:26;16.73;;;12.97;;
32407;SDS011;18869;55.970;37.502;2022-11-20T07:05:54;21.47;;;14.67;;
32407;SDS011;18869;55.970;37.502;2022-11-20T07:08:25;18.83;;;13.77;;
32407;SDS011;18869;55.970;37.502;2022-11-20T07:10:56;16.73;;;12.70;;
32407;SDS011;18869;55.970;37.502;2022-11-20T07:13:24;17.30;;;12.27;;
32407;SDS011;18869;55.970;37.502;2022-11-20T07:15:52;17.57;;;12.73;;
32407;SDS011;18869;55.970;37.502;2022-11-20T07:18:21;22.03;;;14.20;;
32407;SDS011;18869;55.970;37.502;2022-11-20T07:20:49;21.40;;;13.60;;
32407;SDS011;18869;55.970;37.502;2022-11-20T07:23:18;17.90;;;13.50;;
32407;SDS011;18869;55.970;37.502;2022-11-20T07:25:45;20.57;;;14.70;;
32407;SDS011;18869;55.970;37.502;2022-11-20T07:28:13;17.87;;;13.23;;
32407;SDS011;18869;55.970;37.502;2022-11-20T07:30:41;18.57;;;12.67;;
32407;SDS011;18869;55.970;37.502;2022-11-20T07:33:09;18.57;;;12.90;;
32407;SDS011;18869;55.970;37.502;2022-11-20T07:35:39;18.37;;;12.20;;
32407;SDS011;18869;55.970;37.502;2022-11-20T07:38:09;18.97;;;13.90;;
32407;SDS011;18869;55.970;37.502;2022-11-20T07:40:37;16.73;;;13.37;;
32407;SDS011;18869;55.970;37.502;2022-11-20T07:43:04;14.87;;;11.67;;
32407;SDS011;18869;55.970;37.502;2022-11-20T07:45:33;15.27;;;12.80;;
32407;SDS011;18869;55.970;37.502;2022-11-20T07:48:01;16.33;;;12.67;;
32407;SDS011;18869;55.970;37.502;2022-11-20T07:50:28;17.83;;;12.60;;
32407;SDS011;18869;55.970;37.502;2022-11-20T07:53:01;17.07;;;13.23;;
32407;SDS011;18869;55.970;37.502;2022-11-20T07:55:30;15.80;;;12.23;;
32407;SDS011;18869;55.970;37.502;2022-11-20T07:57:57;17.77;;;13.13;;
32407;SDS011;18869;55.970;37.502;2022-11-20T08:00:25;17.27;;;11.63;;
32407;SDS011;18869;55.970;37.502;2022-11-20T08:02:53;16.23;;;12.83;;
32407;SDS011;18869;55.970;37.502;2022-11-20T08:05:21;16.90;;;12.50;;
32407;SDS011;18869;55.970;37.502;2022-11-20T08:07:50;17.73;;;12.00;;
32407;SDS011;18869;55.970;37.502;2022-11-20T08:10:26;17.17;;;12.47;;
32407;SDS011;18869;55.970;37.502;2022-11-20T08:12:55;16.97;;;13.13;;
32407;SDS011;18869;55.970;37.502;2022-11-20T08:15:41;19.07;;;13.77;;
32407;SDS011;18869;55.970;37.502;2022-11-20T08:18:10;19.40;;;13.80;;
32407;SDS011;18869;55.970;37.502;2022-11-20T08:20:38;17.20;;;12.60;;
32407;SDS011;18869;55.970;37.502;2022-11-20T08:23:06;18.40;;;12.77;;
32407;SDS011;18869;55.970;37.502;2022-11-20T08:25:36;18.93;;;13.90;;
32407;SDS011;18869;55.970;37.502;2022-11-20T08:28:05;19.60;;;13.73;;
32407;SDS011;18869;55.970;37.502;2022-11-20T08:30:34;20.47;;;14.00;;
32407;SDS011;18869;55.970;37.502;2022-11-20T08:33:03;16.57;;;13.27;;
32407;SDS011;18869;55.970;37.502;2022-11-20T08:35:32;21.30;;;14.20;;
32407;SDS011;18869;55.970;37.502;2022-11-20T08:38:03;18.87;;;13.03;;
32407;SDS011;18869;55.970;37.502;2022-11-20T08:40:32;18.70;;;13.60;;
32407;SDS011;18869;55.970;37.502;2022-11-20T08:43:21;19.90;;;13.43;;
32407;SDS011;18869;55.970;37.502;2022-11-20T08:46:19;18.53;;;13.60;;
32407;SDS011;18869;55.970;37.502;2022-11-20T08:48:49;19.73;;;14.43;;
32407;SDS011;18869;55.970;37.502;2022-11-20T08:54:29;19.10;;;12.50;;
32407;SDS011;18869;55.970;37.502;2022-11-20T08:57:00;24.57;;;13.70;;
32407;SDS011;18869;55.970;37.502;2022-11-20T09:00:11;17.67;;;13.17;;
32407;SDS011;18869;55.970;37.502;2022-11-20T09:02:51;17.53;;;11.93;;
32407;SDS011;18869;55.970;37.502;2022-11-20T09:05:27;20.03;;;14.03;;
32407;SDS011;18869;55.970;37.502;2022-11-20T09:08:00;18.20;;;13.63;;
32407;SDS011;18869;55.970;37.502;2022-11-20T09:10:39;21.23;;;14.17;;
32407;SDS011;18869;55.970;37.502;2022-11-20T09:13:19;20.20;;;13.87;;
32407;SDS011;18869;55.970;37.502;2022-11-20T09:15:54;22.03;;;14.87;;
32407;SDS011;18869;55.970;37.502;2022-11-20T09:18:25;22.37;;;15.57;;
32407;SDS011;18869;55.970;37.502;2022-11-20T09:20:56;23.17;;;14.10;;
32407;SDS011;18869;55.970;37.502;2022-11-20T09:23:30;21.43;;;14.53;;
32407;SDS011;18869;55.970;37.502;2022-11-20T09:26:01;21.70;;;14.80;;
32407;SDS011;18869;55.970;37.502;2022-11-20T09:28:32;22.50;;;14.57;;
32407;SDS011;18869;55.970;37.502;2022-11-20T09:31:04;20.30;;;14.83;;
32407;SDS011;18869;55.970;37.502;2022-11-20T09:33:38;25.33;;;16.40;;
32407;SDS011;18869;55.970;37.502;2022-11-20T09:36:10;25.23;;;15.30;;
32407;SDS011;18869;55.970;37.502;2022-11-20T09:38:44;22.27;;;15.03;;
32407;SDS011;18869;55.970;37.502;2022-11-20T09:41:19;24.87;;;15.87;;
32407;SDS011;18869;55.970;37.502;2022-11-20T09:44:09;26.60;;;15.80;;
32407;SDS011;18869;55.970;37.502;2022-11-20T09:46:55;22.13;;;15.97;;
32407;SDS011;18869;55.970;37.502;2022-11-20T09:49:35;23.13;;;15.33;;
32407;SDS011;18869;55.970;37.502;2022-11-20T09:52:20;22.77;;;16.17;;
32407;SDS011;18869;55.970;37.502;2022-11-20T09:58:29;23.53;;;15.73;;
32407;SDS011;18869;55.970;37.502;2022-11-20T10:01:29;22.50;;;15.67;;
32407;SDS011;18869;55.970;37.502;2022-11-20T10:04:18;22.37;;;15.80;;
32407;SDS011;18869;55.970;37.502;2022-11-20T10:07:19;23.97;;;15.03;;
32407;SDS011;18869;55.970;37.502;2022-11-20T10:09:54;24.40;;;17.17;;
32407;SDS011;18869;55.970;37.502;2022-11-20T10:12:27;24.53;;;16.77;;
32407;SDS011;18869;55.970;37.502;2022-11-20T10:15:22;23.43;;;15.87;;
32407;SDS011;18869;55.970;37.502;2022-11-20T10:18:00;22.03;;;15.80;;
32407;SDS011;18869;55.970;37.502;2022-11-20T10:20:43;26.13;;;16.80;;
32407;SDS011;18869;55.970;37.502;2022-11-20T10:23:20;26.70;;;16.50;;
32407;SDS011;18869;55.970;37.502;2022-11-20T10:26:29;22.30;;;15.70;;
32407;SDS011;18869;55.970;37.502;2022-11-20T10:29:09;24.43;;;16.90;;
32407;SDS011;18869;55.970;37.502;2022-11-20T10:32:01;21.77;;;15.30;;
32407;SDS011;18869;55.970;37.502;2022-11-20T10:34:40;24.63;;;16.73;;
32407;SDS011;18869;55.970;37.502;2022-11-20T10:37:16;28.13;;;16.53;;
32407;SDS011;18869;55.970;37.502;2022-11-20T10:39:47;28.97;;;19.13;;
32407;SDS011;18869;55.970;37.502;2022-11-20T10:42:23;28.43;;;18.87;;
32407;SDS011;18869;55.970;37.502;2022-11-20T10:44:58;31.17;;;20.33;;
32407;SDS011;18869;55.970;37.502;2022-11-20T10:47:35;29.53;;;20.47;;
32407;SDS011;18869;55.970;37.502;2022-11-20T10:50:09;31.70;;;18.73;;
32407;SDS011;18869;55.970;37.502;2022-11-20T10:52:48;82.03;;;34.20;;
32407;SDS011;18869;55.970;37.502;2022-11-20T10:55:28;56.87;;;27.60;;
32407;SDS011;18869;55.970;37.502;2022-11-20T10:58:08;43.93;;;24.27;;
32407;SDS011;18869;55.970;37.502;2022-11-20T11:00:44;40.30;;;21.90;;
32407;SDS011;18869;55.970;37.502;2022-11-20T11:03:20;37.07;;;19.97;;
32407;SDS011;18869;55.970;37.502;2022-11-20T11:05:53;31.37;;;20.30;;
32407;SDS011;18869;55.970;37.502;2022-11-20T11:08:24;38.87;;;20.37;;
32407;SDS011;18869;55.970;37.502;2022-11-20T11:10:54;39.20;;;21.17;;
32407;SDS011;18869;55.970;37.502;2022-11-20T11:13:26;40.13;;;21.03;;
32407;SDS011;18869;55.970;37.502;2022-11-20T11:15:55;40.03;;;22.47;;
32407;SDS011;18869;55.970;37.502;2022-11-20T11:18:24;36.70;;;20.13;;
32407;SDS011;18869;55.970;37.502;2022-11-20T11:20:56;37.40;;;18.97;;
32407;SDS011;18869;55.970;37.502;2022-11-20T11:23:28;34.20;;;20.23;;
32407;SDS011;18869;55.970;37.502;2022-11-20T11:26:06;32.33;;;20.00;;
32407;SDS011;18869;55.970;37.502;2022-11-20T11:28:52;33.00;;;20.07;;
32407;SDS011;18869;55.970;37.502;2022-11-20T11:31:26;47.70;;;20.97;;
32407;SDS011;18869;55.970;37.502;2022-11-20T11:34:07;36.13;;;21.87;;
32407;SDS011;18869;55.970;37.502;2022-11-20T11:36:38;34.87;;;20.17;;
32407;SDS011;18869;55.970;37.502;2022-11-20T11:39:15;38.47;;;21.80;;
32407;SDS011;18869;55.970;37.502;2022-11-20T11:41:49;43.20;;;21.80;;
32407;SDS011;18869;55.970;37.502;2022-11-20T11:44:20;35.67;;;20.10;;
32407;SDS011;18869;55.970;37.502;2022-11-20T11:47:09;46.87;;;24.30;;
32407;SDS011;18869;55.970;37.502;2022-11-20T11:49:48;39.77;;;24.33;;
32407;SDS011;18869;55.970;37.502;2022-11-20T11:52:20;39.93;;;22.53;;
32407;SDS011;18869;55.970;37.502;2022-11-20T11:54:58;40.73;;;21.97;;
32407;SDS011;18869;55.970;37.502;2022-11-20T11:57:41;36.90;;;20.77;;
32407;SDS011;18869;55.970;37.502;2022-11-20T12:00:18;31.10;;;20.73;;
32407;SDS011;18869;55.970;37.502;2022-11-20T12:02:54;36.90;;;20.93;;
32407;SDS011;18869;55.970;37.502;2022-11-20T12:05:30;34.57;;;20.43;;
32407;SDS011;18869;55.970;37.502;2022-11-20T12:08:05;31.53;;;19.03;;
32407;SDS011;18869;55.970;37.502;2022-11-20T12:10:39;31.97;;;18.77;;
32407;SDS011;18869;55.970;37.502;2022-11-20T12:13:17;29.97;;;19.00;;
32407;SDS011;18869;55.970;37.502;2022-11-20T12:16:01;25.97;;;17.73;;
32407;SDS011;18869;55.970;37.502;2022-11-20T12:18:32;28.80;;;17.30;;
32407;SDS011;18869;55.970;37.502;2022-11-20T12:21:07;30.23;;;17.53;;
32407;SDS011;18869;55.970;37.502;2022-11-20T12:23:50;30.83;;;19.40;;
32407;SDS011;18869;55.970;37.502;2022-11-20T12:26:31;33.30;;;20.00;;
32407;SDS011;18869;55.970;37.502;2022-11-20T12:29:07;32.80;;;19.87;;
32407;SDS011;18869;55.970;37.502;2022-11-20T12:31:43;33.70;;;17.43;;
32407;SDS011;18869;55.970;37.502;2022-11-20T12:34:19;31.87;;;17.90;;
32407;SDS011;18869;55.970;37.502;2022-11-20T12:36:57;28.70;;;18.43;;
32407;SDS011;18869;55.970;37.502;2022-11-20T12:39:35;25.30;;;16.47;;
32407;SDS011;18869;55.970;37.502;2022-11-20T12:42:21;31.17;;;16.60;;
32407;SDS011;18869;55.970;37.502;2022-11-20T12:45:42;21.13;;;14.93;;
32407;SDS011;18869;55.970;37.502;2022-11-20T12:48:32;26.07;;;15.53;;
32407;SDS011;18869;55.970;37.502;2022-11-20T12:51:09;23.60;;;13.63;;
32407;SDS011;18869;55.970;37.502;2022-11-20T12:53:59;17.30;;;12.97;;
32407;SDS011;18869;55.970;37.502;2022-11-20T12:56:40;23.43;;;14.63;;
32407;SDS011;18869;55.970;37.502;2022-11-20T12:59:20;24.93;;;14.57;;
32407;SDS011;18869;55.970;37.502;2022-11-20T13:01:55;20.37;;;14.67;;
32407;SDS011;18869;55.970;37.502;2022-11-20T13:04:34;21.07;;;13.30;;
32407;SDS011;18869;55.970;37.502;2022-11-20T13:07:15;20.30;;;12.87;;
32407;SDS011;18869;55.970;37.502;2022-11-20T13:09:43;16.07;;;12.37;;
32407;SDS011;18869;55.970;37.502;2022-11-20T13:12:13;15.53;;;12.07;;
32407;SDS011;18869;55.970;37.502;2022-11-20T13:14:46;15.40;;;12.63;;
32407;SDS011;18869;55.970;37.502;2022-11-20T13:17:19;18.37;;;13.33;;
32407;SDS011;18869;55.970;37.502;2022-11-20T13:19:50;16.80;;;12.90;;
32407;SDS011;18869;55.970;37.502;2022-11-20T13:22:26;16.43;;;10.87;;
32407;SDS011;18869;55.970;37.502;2022-11-20T13:24:54;16.97;;;12.43;;
32407;SDS011;18869;55.970;37.502;2022-11-20T13:27:22;16.77;;;11.90;;
32407;SDS011;18869;55.970;37.502;2022-11-20T13:30:03;15.43;;;11.40;;
32407;SDS011;18869;55.970;37.502;2022-11-20T13:32:49;14.00;;;11.23;;
32407;SDS011;18869;55.970;37.502;2022-11-20T13:35:28;14.37;;;10.57;;
32407;SDS011;18869;55.970;37.502;2022-11-20T13:38:03;16.83;;;12.07;;
32407;SDS011;18869;55.970;37.502;2022-11-20T13:40:35;17.83;;;11.47;;
32407;SDS011;18869;55.970;37.502;2022-11-20T13:43:08;16.30;;;11.67;;
32407;SDS011;18869;55.970;37.502;2022-11-20T13:45:57;19.67;;;13.13;;
32407;SDS011;18869;55.970;37.502;2022-11-20T13:48:26;15.47;;;10.83;;
32407;SDS011;18869;55.970;37.502;2022-11-20T13:51:09;18.20;;;13.00;;
32407;SDS011;18869;55.970;37.502;2022-11-20T13:53:48;15.17;;;12.10;;
32407;SDS011;18869;55.970;37.502;2022-11-20T13:56:24;15.37;;;12.13;;
32407;SDS011;18869;55.970;37.502;2022-11-20T13:58:59;18.40;;;12.30;;
32407;SDS011;18869;55.970;37.502;2022-11-20T14:01:31;17.10;;;11.43;;
32407;SDS011;18869;55.970;37.502;2022-11-20T14:04:00;17.03;;;11.60;;
32407;SDS011;18869;55.970;37.502;2022-11-20T14:06:34;16.40;;;11.43;;
32407;SDS011;18869;55.970;37.502;2022-11-20T14:09:10;17.17;;;11.70;;
32407;SDS011;18869;55.970;37.502;2022-11-20T14:11:45;17.43;;;12.20;;
32407;SDS011;18869;55.970;37.502;2022-11-20T14:14:13;16.37;;;11.43;;
32407;SDS011;18869;55.970;37.502;2022-11-20T14:16:44;21.13;;;12.03;;
32407;SDS011;18869;55.970;37.502;2022-11-20T14:19:25;19.17;;;12.87;;
32407;SDS011;18869;55.970;37.502;2022-11-20T14:22:08;14.40;;;11.33;;
32407;SDS011;18869;55.970;37.502;2022-11-20T14:24:37;16.13;;;13.30;;
32407;SDS011;18869;55.970;37.502;2022-11-20T14:27:09;20.50;;;13.40;;
32407;SDS011;18869;55.970;37.502;2022-11-20T14:29:39;16.57;;;12.37;;
32407;SDS011;18869;55.970;37.502;2022-11-20T14:32:09;16.33;;;12.30;;
32407;SDS011;18869;55.970;37.502;2022-11-20T14:34:38;16.27;;;13.17;;
32407;SDS011;18869;55.970;37.502;2022-11-20T14:37:10;19.53;;;13.20;;
32407;SDS011;18869;55.970;37.502;2022-11-20T14:39:40;16.77;;;13.20;;
32407;SDS011;18869;55.970;37.502;2022-11-20T14:42:14;19.30;;;12.87;;
32407;SDS011;18869;55.970;37.502;2022-11-20T14:44:42;19.77;;;13.00;;
32407;SDS011;18869;55.970;37.502;2022-11-20T14:47:15;20.80;;;14.93;;
32407;SDS011;18869;55.970;37.502;2022-11-20T14:49:50;18.57;;;13.30;;